Time;durP1;ratioP1;P1;durP2;ratioP2;P2;SDS_P1;SDS_P2;PMS_P1;PMS_P2;Temp;Humidity;BMP_temperature;BMP_pressure;BME280_temperature;BME280_humidity;BME280_pressure;Samples;Min_cycle;Max_cycle;Signal;HPM_P1;HPM_P2
2023/09/01 00:02:13;;;;;;;6.30;3.05;;;;;;;;;;5045807;28;20049;-78
2023/09/01 00:04:39;;;;;;;3.30;2.97;;;;;;;;;;5046240;28;20077;-80
2023/09/01 00:07:06;;;;;;;3.53;2.75;;;;;;;;;;5045580;28;20050;-79
2023/09/01 00:09:32;;;;;;;4.68;3.20;;;;;;;;;;5045473;28;20049;-79
2023/09/01 00:12:00;;;;;;;5.32;3.42;;;;;;;;;;5046805;28;20055;-79
2023/09/01 00:14:27;;;;;;;4.95;3.20;;;;;;;;;;5045411;28;20050;-79
2023/09/01 00:16:52;;;;;;;5.22;3.85;;;;;;;;;;5045210;28;20432;-79
2023/09/01 00:19:20;;;;;;;4.10;3.42;;;;;;;;;;5045297;28;20068;-80
2023/09/01 00:21:46;;;;;;;5.65;3.80;;;;;;;;;;5045515;28;20041;-79
2023/09/01 00:24:13;;;;;;;3.72;3.33;;;;;;;;;;5047234;28;20052;-80
2023/09/01 00:26:40;;;;;;;4.93;3.65;;;;;;;;;;5046319;28;20046;-79
2023/09/01 00:29:08;;;;;;;3.38;3.08;;;;;;;;;;5046967;28;20045;-79
2023/09/01 00:31:35;;;;;;;4.28;2.78;;;;;;;;;;5045616;28;20042;-80
2023/09/01 00:34:01;;;;;;;3.58;2.47;;;;;;;;;;5046657;28;20058;-80
2023/09/01 00:36:28;;;;;;;3.03;2.72;;;;;;;;;;5046156;28;20061;-79
2023/09/01 00:38:55;;;;;;;5.18;2.80;;;;;;;;;;5047583;28;20041;-80
2023/09/01 00:41:21;;;;;;;4.07;2.80;;;;;;;;;;5046539;28;20045;-80
2023/09/01 00:43:48;;;;;;;2.95;2.30;;;;;;;;;;5048224;28;20045;-79
2023/09/01 00:46:16;;;;;;;3.97;2.38;;;;;;;;;;5047637;28;20100;-80
2023/09/01 00:48:42;;;;;;;3.50;2.70;;;;;;;;;;5047076;28;20136;-79
2023/09/01 00:51:09;;;;;;;4.25;2.30;;;;;;;;;;5047934;28;20390;-80
2023/09/01 00:53:37;;;;;;;2.90;2.45;;;;;;;;;;5048810;28;20056;-80
2023/09/01 00:56:04;;;;;;;4.00;2.80;;;;;;;;;;5049209;28;20109;-80
2023/09/01 00:58:31;;;;;;;4.15;2.67;;;;;;;;;;5052198;28;20057;-80
2023/09/01 01:00:58;;;;;;;4.20;2.42;;;;;;;;;;5053464;28;20041;-80
2023/09/01 01:03:27;;;;;;;4.00;2.50;;;;;;;;;;5051533;28;20045;-80
2023/09/01 01:06:09;;;;;;;2.75;2.50;;;;;;;;;;5045153;28;20045;-80
2023/09/01 01:08:45;;;;;;;2.67;2.45;;;;;;;;;;5045621;28;20038;-80
2023/09/01 01:11:17;;;;;;;2.92;2.63;;;;;;;;;;5044421;28;20501;-81
2023/09/01 01:13:48;;;;;;;2.50;2.17;;;;;;;;;;5044963;28;20052;-79
2023/09/01 01:16:15;;;;;;;2.90;2.50;;;;;;;;;;5044773;28;20232;-78
2023/09/01 01:18:46;;;;;;;2.60;2.38;;;;;;;;;;5044458;28;20045;-78
2023/09/01 01:21:22;;;;;;;3.30;2.40;;;;;;;;;;5044209;28;20033;-79
2023/09/01 01:23:52;;;;;;;3.38;2.50;;;;;;;;;;5045277;28;20073;-78
2023/09/01 01:26:19;;;;;;;2.92;2.20;;;;;;;;;;5044772;28;20056;-78
2023/09/01 01:28:46;;;;;;;2.60;2.40;;;;;;;;;;5043440;28;20041;-79
2023/09/01 01:31:13;;;;;;;3.85;2.67;;;;;;;;;;5044350;28;20128;-78
2023/09/01 01:33:49;;;;;;;2.45;2.25;;;;;;;;;;5043764;28;20053;-80
2023/09/01 01:36:19;;;;;;;3.42;2.25;;;;;;;;;;5044453;28;20041;-80
2023/09/01 01:38:51;;;;;;;6.22;2.67;;;;;;;;;;5043429;28;20049;-78
2023/09/01 01:41:25;;;;;;;4.38;2.83;;;;;;;;;;5043746;28;20053;-78
2023/09/01 01:43:52;;;;;;;3.10;2.72;;;;;;;;;;5043641;28;20485;-78
2023/09/01 01:46:20;;;;;;;4.72;2.58;;;;;;;;;;5045269;28;20424;-79
2023/09/01 01:48:47;;;;;;;6.00;2.95;;;;;;;;;;5043581;28;20053;-79
2023/09/01 01:51:14;;;;;;;2.95;2.47;;;;;;;;;;5043243;28;20045;-78
2023/09/01 01:53:41;;;;;;;3.20;2.90;;;;;;;;;;5044216;28;20049;-78
2023/09/01 01:56:07;;;;;;;3.90;2.88;;;;;;;;;;5044417;28;20072;-79
2023/09/01 01:58:35;;;;;;;3.60;2.85;;;;;;;;;;5043849;28;20042;-78
2023/09/01 02:01:06;;;;;;;3.13;2.75;;;;;;;;;;5043586;28;20136;-78
2023/09/01 02:03:32;;;;;;;3.90;2.65;;;;;;;;;;5041912;28;20470;-79
2023/09/01 02:05:59;;;;;;;4.10;2.90;;;;;;;;;;5042379;28;20397;-78
2023/09/01 02:08:25;;;;;;;5.68;2.42;;;;;;;;;;5042982;28;20485;-78
2023/09/01 02:10:52;;;;;;;3.67;2.60;;;;;;;;;;5042030;28;20045;-79
2023/09/01 02:13:18;;;;;;;3.15;2.53;;;;;;;;;;5042625;28;20045;-78
2023/09/01 02:15:52;;;;;;;3.03;2.70;;;;;;;;;;5043297;28;20068;-78
2023/09/01 02:18:19;;;;;;;3.80;2.53;;;;;;;;;;5042480;28;20051;-78
2023/09/01 02:20:46;;;;;;;3.33;2.47;;;;;;;;;;5041336;28;20061;-78
2023/09/01 02:23:15;;;;;;;3.45;2.58;;;;;;;;;;5043012;28;20099;-79
2023/09/01 02:25:41;;;;;;;3.65;2.90;;;;;;;;;;5042562;28;20049;-79
2023/09/01 02:28:08;;;;;;;3.72;2.42;;;;;;;;;;5043274;28;20045;-78
2023/09/01 02:30:34;;;;;;;3.45;2.88;;;;;;;;;;5043001;28;20041;-79
2023/09/01 02:33:02;;;;;;;4.22;3.22;;;;;;;;;;5043938;28;20428;-78
2023/09/01 02:35:29;;;;;;;4.20;2.95;;;;;;;;;;5042305;28;20057;-79
2023/09/01 02:37:55;;;;;;;3.97;3.00;;;;;;;;;;5043682;28;20109;-79
2023/09/01 02:40:24;;;;;;;4.43;3.38;;;;;;;;;;5043997;28;20046;-79
2023/09/01 02:42:51;;;;;;;3.35;2.95;;;;;;;;;;5047039;28;20218;-79
2023/09/01 02:45:19;;;;;;;4.90;2.92;;;;;;;;;;5047022;28;20069;-79
2023/09/01 02:47:46;;;;;;;7.05;3.08;;;;;;;;;;5047384;28;20104;-78
2023/09/01 02:50:14;;;;;;;5.97;3.15;;;;;;;;;;5045848;28;20052;-79
2023/09/01 02:52:40;;;;;;;3.50;3.08;;;;;;;;;;5046294;28;20084;-78
2023/09/01 02:55:08;;;;;;;3.38;2.85;;;;;;;;;;5045373;28;20103;-77
2023/09/01 02:57:35;;;;;;;4.20;3.40;;;;;;;;;;5045193;28;20354;-79
2023/09/01 03:00:04;;;;;;;5.93;3.50;;;;;;;;;;5044354;28;20049;-78
2023/09/01 03:02:30;;;;;;;3.15;2.85;;;;;;;;;;5044515;28;20084;-79
2023/09/01 03:04:57;;;;;;;3.17;2.88;;;;;;;;;;5044478;28;20051;-79
2023/09/01 03:07:27;;;;;;;4.75;2.97;;;;;;;;;;5044603;28;20114;-78
2023/09/01 03:09:53;;;;;;;5.43;3.20;;;;;;;;;;5044467;28;20049;-77
2023/09/01 03:12:20;;;;;;;3.22;2.83;;;;;;;;;;5045155;28;20125;-80
2023/09/01 03:14:46;;;;;;;4.68;3.20;;;;;;;;;;5044981;28;20060;-80
2023/09/01 03:17:13;;;;;;;5.35;3.00;;;;;;;;;;5044846;28;20045;-81
2023/09/01 03:19:39;;;;;;;4.72;3.15;;;;;;;;;;5043840;28;20072;-80
2023/09/01 03:22:06;;;;;;;6.07;3.35;;;;;;;;;;5043927;28;20075;-80
2023/09/01 03:24:34;;;;;;;3.38;2.70;;;;;;;;;;5044390;28;20046;-80
2023/09/01 03:27:00;;;;;;;4.47;2.97;;;;;;;;;;5044337;28;20109;-79
2023/09/01 03:29:27;;;;;;;3.67;2.83;;;;;;;;;;5044497;28;20055;-81
2023/09/01 03:31:53;;;;;;;4.22;3.15;;;;;;;;;;5044161;28;20050;-81
2023/09/01 03:34:21;;;;;;;4.03;3.10;;;;;;;;;;5044881;28;20055;-79
2023/09/01 03:36:47;;;;;;;3.67;2.90;;;;;;;;;;5043927;28;20500;-80
2023/09/01 03:39:15;;;;;;;4.18;3.13;;;;;;;;;;5044827;28;20072;-80
2023/09/01 03:41:43;;;;;;;7.07;3.72;;;;;;;;;;5043417;28;20095;-80
2023/09/01 03:44:09;;;;;;;5.05;3.75;;;;;;;;;;5045205;28;20483;-81
2023/09/01 03:46:36;;;;;;;4.60;3.50;;;;;;;;;;5044457;28;20056;-79
2023/09/01 03:49:02;;;;;;;5.30;3.60;;;;;;;;;;5044639;28;20049;-79
2023/09/01 03:51:29;;;;;;;4.38;3.40;;;;;;;;;;5044084;28;20049;-80
2023/09/01 03:53:55;;;;;;;4.03;3.38;;;;;;;;;;5044948;28;20049;-80
2023/09/01 03:56:22;;;;;;;5.18;3.75;;;;;;;;;;5044444;28;20053;-80
2023/09/01 03:58:50;;;;;;;5.28;3.70;;;;;;;;;;5044742;28;20042;-81
2023/09/01 04:01:17;;;;;;;4.93;3.42;;;;;;;;;;5043903;28;20045;-81
2023/09/01 04:03:46;;;;;;;4.20;3.50;;;;;;;;;;5044056;28;20136;-80
2023/09/01 04:06:13;;;;;;;5.43;4.07;;;;;;;;;;5044630;28;20049;-81
2023/09/01 04:08:39;;;;;;;5.55;3.80;;;;;;;;;;5044295;28;20175;-79
2023/09/01 04:11:06;;;;;;;4.88;3.95;;;;;;;;;;5043897;28;20053;-81
2023/09/01 04:13:34;;;;;;;7.20;3.55;;;;;;;;;;5044494;28;20049;-80
2023/09/01 04:16:02;;;;;;;5.65;3.20;;;;;;;;;;5044960;28;20053;-80
2023/09/01 04:18:28;;;;;;;4.20;3.13;;;;;;;;;;5045908;28;20495;-79
2023/09/01 04:20:56;;;;;;;5.43;3.78;;;;;;;;;;5047288;28;20052;-81
2023/09/01 04:23:22;;;;;;;5.47;3.88;;;;;;;;;;5046886;28;20055;-80
2023/09/01 04:25:50;;;;;;;4.32;3.75;;;;;;;;;;5062045;22;20055;-66
2023/09/01 04:28:17;;;;;;;4.90;3.45;;;;;;;;;;5031683;28;20429;-65
2023/09/01 04:30:44;;;;;;;5.15;3.88;;;;;;;;;;5030478;28;20046;-66
2023/09/01 04:33:13;;;;;;;5.57;4.20;;;;;;;;;;5031480;28;20045;-65
2023/09/01 04:35:40;;;;;;;4.97;3.97;;;;;;;;;;5030877;28;20084;-65
2023/09/01 04:38:07;;;;;;;5.38;4.03;;;;;;;;;;5030976;28;20133;-65
2023/09/01 04:40:33;;;;;;;5.20;4.15;;;;;;;;;;5030127;28;20049;-65
2023/09/01 04:43:00;;;;;;;6.55;3.88;;;;;;;;;;5031423;28;20148;-66
2023/09/01 04:45:26;;;;;;;4.93;4.25;;;;;;;;;;5031440;28;20494;-66
2023/09/01 04:47:53;;;;;;;5.95;4.28;;;;;;;;;;5031460;28;20517;-65
2023/09/01 04:50:21;;;;;;;5.25;4.20;;;;;;;;;;5030458;28;20045;-66
2023/09/01 04:52:48;;;;;;;5.97;4.65;;;;;;;;;;5032206;28;20057;-66
2023/09/01 04:55:15;;;;;;;7.60;4.45;;;;;;;;;;5031754;28;20050;-66
2023/09/01 04:57:42;;;;;;;4.22;3.72;;;;;;;;;;5032016;28;20100;-65
2023/09/01 05:00:15;;;;;;;4.90;3.63;;;;;;;;;;5030551;28;20045;-65
2023/09/01 05:02:43;;;;;;;5.15;3.35;;;;;;;;;;5030813;28;20053;-65
2023/09/01 05:05:10;;;;;;;4.38;3.55;;;;;;;;;;5029779;28;20053;-66
2023/09/01 05:07:38;;;;;;;5.78;3.72;;;;;;;;;;5030806;28;20049;-66
2023/09/01 05:10:05;;;;;;;4.53;3.75;;;;;;;;;;5030117;28;20057;-66
2023/09/01 05:12:32;;;;;;;4.65;3.33;;;;;;;;;;5030609;28;20053;-65
2023/09/01 05:14:59;;;;;;;6.03;3.85;;;;;;;;;;5030643;28;20053;-65
2023/09/01 05:17:26;;;;;;;4.85;3.60;;;;;;;;;;5030254;28;20484;-66
2023/09/01 05:19:52;;;;;;;4.97;3.60;;;;;;;;;;5029727;28;20049;-65
2023/09/01 05:22:19;;;;;;;4.05;3.58;;;;;;;;;;5030191;28;20053;-65
2023/09/01 05:24:48;;;;;;;4.40;3.47;;;;;;;;;;5030488;28;20045;-66
2023/09/01 05:27:15;;;;;;;3.90;3.13;;;;;;;;;;5029990;28;20056;-65
2023/09/01 05:29:42;;;;;;;5.03;3.83;;;;;;;;;;5029741;28;20575;-65
2023/09/01 05:32:09;;;;;;;6.50;4.28;;;;;;;;;;5029887;28;20046;-65
2023/09/01 05:34:35;;;;;;;5.40;3.70;;;;;;;;;;5030455;28;20064;-65
2023/09/01 05:37:02;;;;;;;3.63;3.00;;;;;;;;;;5029953;28;20056;-67
2023/09/01 05:39:29;;;;;;;4.22;3.13;;;;;;;;;;5029643;28;20060;-65
2023/09/01 05:41:57;;;;;;;3.53;3.05;;;;;;;;;;5029803;28;20049;-66
2023/09/01 05:44:23;;;;;;;3.50;2.90;;;;;;;;;;5030111;28;20314;-66
2023/09/01 05:46:50;;;;;;;3.33;2.75;;;;;;;;;;5029469;28;20045;-66
2023/09/01 05:49:17;;;;;;;4.30;2.88;;;;;;;;;;5030324;28;20041;-65
2023/09/01 05:51:43;;;;;;;3.63;3.08;;;;;;;;;;5029659;28;20045;-65
2023/09/01 05:54:10;;;;;;;4.53;3.40;;;;;;;;;;5030418;28;20446;-65
2023/09/01 05:56:36;;;;;;;3.95;3.38;;;;;;;;;;5030038;28;20049;-65
2023/09/01 05:59:04;;;;;;;3.65;3.35;;;;;;;;;;5029622;28;20045;-65
2023/09/01 06:01:35;;;;;;;4.32;3.40;;;;;;;;;;5029078;28;20053;-65
2023/09/01 06:04:03;;;;;;;3.47;2.92;;;;;;;;;;5029518;28;20483;-65
2023/09/01 06:06:30;;;;;;;4.13;3.13;;;;;;;;;;5029788;28;20083;-66
2023/09/01 06:08:57;;;;;;;4.18;3.55;;;;;;;;;;5029540;28;20048;-66
2023/09/01 06:11:23;;;;;;;4.32;3.20;;;;;;;;;;5029517;28;20471;-66
2023/09/01 06:13:50;;;;;;;4.30;3.35;;;;;;;;;;5029142;28;20498;-66
2023/09/01 06:16:18;;;;;;;3.55;3.20;;;;;;;;;;5029775;28;20049;-66
2023/09/01 06:18:44;;;;;;;5.00;3.42;;;;;;;;;;5029465;28;20052;-66
2023/09/01 06:21:15;;;;;;;5.15;3.15;;;;;;;;;;5029061;28;20513;-66
2023/09/01 06:23:44;;;;;;;5.97;3.47;;;;;;;;;;5029187;28;20124;-66
2023/09/01 06:26:11;;;;;;;4.25;3.22;;;;;;;;;;5029396;28;20061;-67
2023/09/01 06:28:38;;;;;;;3.75;3.22;;;;;;;;;;5028713;28;20065;-65
2023/09/01 06:31:05;;;;;;;4.93;3.20;;;;;;;;;;5029058;28;20041;-65
2023/09/01 06:33:33;;;;;;;6.20;3.00;;;;;;;;;;5029016;28;20095;-66
2023/09/01 06:35:59;;;;;;;5.32;3.20;;;;;;;;;;5029477;28;20049;-66
2023/09/01 06:38:26;;;;;;;4.30;2.90;;;;;;;;;;5029816;28;20048;-66
2023/09/01 06:40:52;;;;;;;3.92;2.85;;;;;;;;;;5028097;28;20406;-66
2023/09/01 06:43:19;;;;;;;4.32;3.13;;;;;;;;;;5028402;28;20045;-66
2023/09/01 06:45:45;;;;;;;5.68;3.20;;;;;;;;;;5029030;28;20496;-67
2023/09/01 06:48:12;;;;;;;3.88;3.20;;;;;;;;;;5029248;28;20046;-66
2023/09/01 06:50:41;;;;;;;7.20;3.60;;;;;;;;;;5027925;28;20053;-66
2023/09/01 06:53:07;;;;;;;4.13;3.20;;;;;;;;;;5029509;28;20045;-66
2023/09/01 06:55:34;;;;;;;4.22;3.33;;;;;;;;;;5028693;28;20531;-66
2023/09/01 06:58:00;;;;;;;4.65;3.10;;;;;;;;;;5029631;28;20128;-66
2023/09/01 07:00:27;;;;;;;6.05;3.00;;;;;;;;;;5028682;28;20414;-66
2023/09/01 07:02:54;;;;;;;4.78;3.35;;;;;;;;;;5029377;28;20041;-66
2023/09/01 07:05:20;;;;;;;3.60;3.22;;;;;;;;;;5028796;28;20052;-66
2023/09/01 07:07:49;;;;;;;8.15;3.40;;;;;;;;;;5029236;28;20041;-66
2023/09/01 07:10:16;;;;;;;5.70;3.30;;;;;;;;;;5027845;28;20053;-66
2023/09/01 07:12:43;;;;;;;4.28;3.45;;;;;;;;;;5029451;28;20057;-66
2023/09/01 07:15:10;;;;;;;5.65;3.20;;;;;;;;;;5029263;28;20057;-66
2023/09/01 07:17:37;;;;;;;4.72;3.08;;;;;;;;;;5028954;28;20484;-66
2023/09/01 07:20:04;;;;;;;4.13;2.67;;;;;;;;;;5028425;28;20052;-66
2023/09/01 07:22:31;;;;;;;4.15;2.25;;;;;;;;;;5028577;28;20145;-66
2023/09/01 07:24:59;;;;;;;5.85;2.50;;;;;;;;;;5023035;28;20072;-66
2023/09/01 07:27:25;;;;;;;6.28;2.38;;;;;;;;;;5023296;28;20047;-66
2023/09/01 07:29:52;;;;;;;8.13;2.50;;;;;;;;;;5026782;28;20046;-66
2023/09/01 07:32:19;;;;;;;4.93;1.98;;;;;;;;;;5026305;28;20042;-67
2023/09/01 07:34:47;;;;;;;6.18;1.90;;;;;;;;;;5028558;28;20605;-66
2023/09/01 07:37:13;;;;;;;2.20;1.50;;;;;;;;;;5023882;28;20045;-66
2023/09/01 07:39:40;;;;;;;3.63;1.67;;;;;;;;;;5017884;28;20045;-66
2023/09/01 07:42:08;;;;;;;2.00;1.50;;;;;;;;;;5021827;28;20048;-66
2023/09/01 07:44:35;;;;;;;2.13;1.60;;;;;;;;;;5026295;28;20052;-66
2023/09/01 07:47:02;;;;;;;2.42;1.52;;;;;;;;;;5026400;28;20422;-66
2023/09/01 07:49:29;;;;;;;2.60;1.73;;;;;;;;;;5022358;28;20050;-67
2023/09/01 07:51:55;;;;;;;2.78;1.85;;;;;;;;;;5029891;28;20049;-66
2023/09/01 07:54:22;;;;;;;3.92;1.48;;;;;;;;;;5030322;28;20049;-67
2023/09/01 07:56:48;;;;;;;2.03;1.27;;;;;;;;;;5030900;28;20061;-66
2023/09/01 07:59:16;;;;;;;2.42;1.40;;;;;;;;;;5030894;28;20049;-66
2023/09/01 08:01:45;;;;;;;8.73;1.75;;;;;;;;;;5030190;28;20155;-66
2023/09/01 08:04:11;;;;;;;4.95;1.77;;;;;;;;;;5031570;28;20045;-66
2023/09/01 08:06:38;;;;;;;3.42;1.73;;;;;;;;;;5031074;28;20041;-66
2023/09/01 08:09:05;;;;;;;2.10;1.42;;;;;;;;;;5031654;28;20383;-66
2023/09/01 08:11:31;;;;;;;1.35;1.25;;;;;;;;;;5030103;28;20048;-66
2023/09/01 08:13:58;;;;;;;3.58;1.70;;;;;;;;;;5031496;28;20049;-66
2023/09/01 08:16:26;;;;;;;1.95;1.60;;;;;;;;;;5030592;28;20060;-66
2023/09/01 08:18:52;;;;;;;2.65;1.40;;;;;;;;;;5031019;28;20045;-67
2023/09/01 08:21:19;;;;;;;5.00;1.40;;;;;;;;;;5031072;28;20048;-66
2023/09/01 08:23:47;;;;;;;1.60;1.25;;;;;;;;;;5030800;28;20777;-66
2023/09/01 08:26:14;;;;;;;3.15;1.33;;;;;;;;;;5030883;28;20045;-66
2023/09/01 08:28:40;;;;;;;1.30;1.00;;;;;;;;;;5030380;28;20425;-66
2023/09/01 08:31:07;;;;;;;1.60;1.30;;;;;;;;;;5030434;28;20480;-66
2023/09/01 08:33:36;;;;;;;1.35;1.10;;;;;;;;;;5030253;28;20488;-66
2023/09/01 08:36:04;;;;;;;1.38;1.05;;;;;;;;;;5031154;28;20136;-66
2023/09/01 08:38:30;;;;;;;1.60;0.98;;;;;;;;;;5030037;28;20057;-67
2023/09/01 08:40:59;;;;;;;3.22;1.13;;;;;;;;;;5030423;28;20499;-66
2023/09/01 08:43:27;;;;;;;1.27;1.17;;;;;;;;;;5030766;28;20503;-66
2023/09/01 08:45:55;;;;;;;1.38;1.10;;;;;;;;;;5030662;28;20071;-66
2023/09/01 08:48:21;;;;;;;1.10;1.05;;;;;;;;;;5030549;28;20167;-66
2023/09/01 08:50:50;;;;;;;2.13;1.00;;;;;;;;;;5029488;28;20051;-66
2023/09/01 08:53:16;;;;;;;1.85;1.17;;;;;;;;;;5030847;28;20048;-66
2023/09/01 08:55:43;;;;;;;1.75;1.27;;;;;;;;;;5030159;28;20056;-66
2023/09/01 08:58:10;;;;;;;1.40;1.30;;;;;;;;;;5030568;28;20495;-67
2023/09/01 09:00:36;;;;;;;1.85;1.10;;;;;;;;;;5029058;28;20045;-66
2023/09/01 09:03:03;;;;;;;1.10;1.00;;;;;;;;;;5030625;28;20136;-66
2023/09/01 09:05:31;;;;;;;2.30;1.13;;;;;;;;;;5030282;28;20050;-66
2023/09/01 09:08:01;;;;;;;2.55;1.27;;;;;;;;;;5030427;28;20041;-66
2023/09/01 09:10:35;;;;;;;1.10;1.00;;;;;;;;;;5030008;28;20061;-66
2023/09/01 09:13:04;;;;;;;1.55;1.15;;;;;;;;;;5029900;28;20049;-67
2023/09/01 09:15:31;;;;;;;1.13;0.98;;;;;;;;;;5030469;28;20056;-66
2023/09/01 09:17:58;;;;;;;1.70;1.17;;;;;;;;;;5030118;28;20045;-66
2023/09/01 09:20:37;;;;;;;1.38;1.00;;;;;;;;;;5029412;28;20045;-66
2023/09/01 09:23:05;;;;;;;1.45;1.00;;;;;;;;;;5029627;28;20050;-67
2023/09/01 09:25:35;;;;;;;1.80;1.08;;;;;;;;;;5030201;28;20052;-67
2023/09/01 09:28:11;;;;;;;2.28;0.90;;;;;;;;;;5029760;28;20446;-66
2023/09/01 09:30:48;;;;;;;1.17;1.08;;;;;;;;;;5029504;28;20096;-66
2023/09/01 09:33:15;;;;;;;1.80;1.00;;;;;;;;;;5029256;28;20133;-66
2023/09/01 09:35:49;;;;;;;2.03;1.00;;;;;;;;;;5030196;28;20056;-66
2023/09/01 09:38:18;;;;;;;1.83;1.13;;;;;;;;;;5029319;28;20095;-66
2023/09/01 09:40:56;;;;;;;2.72;1.00;;;;;;;;;;5029677;28;20050;-66
2023/09/01 09:43:23;;;;;;;1.27;0.90;;;;;;;;;;5029397;28;20045;-66
2023/09/01 09:45:52;;;;;;;1.45;0.90;;;;;;;;;;5029657;28;20049;-66
2023/09/01 09:48:19;;;;;;;2.15;1.20;;;;;;;;;;5029609;28;20094;-66
2023/09/01 09:50:51;;;;;;;1.30;1.20;;;;;;;;;;5028447;28;20132;-67
2023/09/01 09:53:22;;;;;;;4.15;1.27;;;;;;;;;;5030082;28;20053;-66
2023/09/01 09:55:50;;;;;;;1.40;1.10;;;;;;;;;;5029204;28;20053;-66
2023/09/01 09:58:18;;;;;;;2.42;1.15;;;;;;;;;;5029886;28;20419;-67
2023/09/01 10:00:50;;;;;;;3.08;1.08;;;;;;;;;;5028956;28;20547;-66
2023/09/01 10:03:17;;;;;;;1.23;0.98;;;;;;;;;;5030117;28;20046;-66
2023/09/01 10:05:45;;;;;;;2.35;1.20;;;;;;;;;;5029347;28;20487;-66
2023/09/01 10:08:14;;;;;;;2.53;1.17;;;;;;;;;;5029793;28;20046;-67
2023/09/01 10:10:42;;;;;;;1.10;1.00;;;;;;;;;;5028537;28;20052;-66
2023/09/01 10:13:09;;;;;;;1.55;1.15;;;;;;;;;;5026719;28;20124;-66
2023/09/01 10:15:36;;;;;;;3.60;1.13;;;;;;;;;;5028204;28;20065;-66
2023/09/01 10:18:04;;;;;;;2.33;1.20;;;;;;;;;;5029448;28;20049;-66
2023/09/01 10:20:31;;;;;;;2.85;1.20;;;;;;;;;;5026971;28;20049;-67
2023/09/01 10:22:58;;;;;;;1.10;0.93;;;;;;;;;;5029386;28;20420;-66
2023/09/01 10:25:26;;;;;;;2.35;1.63;;;;;;;;;;5039872;22;20050;-68
2023/09/01 10:28:05;;;;;;;1.80;1.00;;;;;;;;;;5009615;28;20511;-68
2023/09/01 10:30:32;;;;;;;1.27;1.00;;;;;;;;;;5010176;28;20050;-68
2023/09/01 10:33:04;;;;;;;1.35;1.15;;;;;;;;;;5010551;28;20113;-69
2023/09/01 10:35:40;;;;;;;2.95;1.02;;;;;;;;;;5010683;28;20052;-69
2023/09/01 10:38:13;;;;;;;2.15;1.20;;;;;;;;;;5010010;28;20072;-68
2023/09/01 10:40:44;;;;;;;3.22;1.30;;;;;;;;;;5008148;28;20053;-69
2023/09/01 10:43:12;;;;;;;2.40;1.00;;;;;;;;;;5009342;28;20444;-68
2023/09/01 10:45:39;;;;;;;2.80;1.30;;;;;;;;;;5009266;28;20045;-68
2023/09/01 10:48:11;;;;;;;1.27;1.10;;;;;;;;;;5009392;28;20050;-68
2023/09/01 10:50:41;;;;;;;3.17;1.30;;;;;;;;;;5008658;28;20499;-68
2023/09/01 10:53:30;;;;;;;1.77;1.23;;;;;;;;;;5005470;28;20050;-67
2023/09/01 10:56:11;;;;;;;1.27;1.00;;;;;;;;;;5007622;28;20138;-68
2023/09/01 10:58:47;;;;;;;1.55;0.80;;;;;;;;;;5010783;28;20077;-68
2023/09/01 11:01:31;;;;;;;1.48;0.90;;;;;;;;;;5009981;28;20050;-68
2023/09/01 11:04:29;;;;;;;2.33;1.20;;;;;;;;;;5013534;28;20049;-68
2023/09/01 11:07:04;;;;;;;2.60;1.20;;;;;;;;;;5012911;28;20049;-68
2023/09/01 11:09:47;;;;;;;2.10;0.93;;;;;;;;;;5012132;28;20384;-68
2023/09/01 11:12:14;;;;;;;2.78;1.00;;;;;;;;;;5013432;28;20046;-68
2023/09/01 11:14:55;;;;;;;2.30;1.10;;;;;;;;;;5013009;28;20048;-67
2023/09/01 11:17:33;;;;;;;1.17;1.00;;;;;;;;;;5013156;28;20049;-67
2023/09/01 11:20:00;;;;;;;0.90;0.80;;;;;;;;;;5012209;28;20049;-67
2023/09/01 11:22:26;;;;;;;3.55;1.20;;;;;;;;;;5013020;28;20072;-69
2023/09/01 11:24:53;;;;;;;3.70;1.10;;;;;;;;;;5013677;28;20046;-68
2023/09/01 11:27:19;;;;;;;3.25;1.40;;;;;;;;;;5012593;28;20231;-69
2023/09/01 11:29:50;;;;;;;1.95;1.25;;;;;;;;;;5012367;28;20050;-68
2023/09/01 11:32:25;;;;;;;3.28;1.90;;;;;;;;;;5012669;28;20156;-68
2023/09/01 11:34:52;;;;;;;2.38;1.10;;;;;;;;;;5012720;28;20045;-67
2023/09/01 11:37:18;;;;;;;3.65;1.30;;;;;;;;;;5009222;28;20048;-68
2023/09/01 11:39:45;;;;;;;2.30;1.35;;;;;;;;;;5011383;28;20042;-67
2023/09/01 11:42:11;;;;;;;4.80;1.30;;;;;;;;;;5012105;28;20491;-68
2023/09/01 11:44:38;;;;;;;2.60;1.42;;;;;;;;;;5012327;28;20048;-68
2023/09/01 11:47:13;;;;;;;3.03;1.33;;;;;;;;;;5011660;28;20051;-69
2023/09/01 11:49:43;;;;;;;2.97;1.40;;;;;;;;;;5011720;28;20507;-69
2023/09/01 11:52:09;;;;;;;2.80;1.17;;;;;;;;;;5012560;28;20403;-68
2023/09/01 11:54:42;;;;;;;1.77;1.40;;;;;;;;;;5012057;28;20077;-68
2023/09/01 11:57:12;;;;;;;3.10;1.30;;;;;;;;;;5011910;28;20050;-68
2023/09/01 11:59:45;;;;;;;1.98;1.38;;;;;;;;;;5010855;28;20052;-68
2023/09/01 12:02:14;;;;;;;1.27;1.17;;;;;;;;;;5012392;28;20057;-68
2023/09/01 12:04:46;;;;;;;2.03;1.33;;;;;;;;;;5011679;28;20075;-68
2023/09/01 12:07:22;;;;;;;;;;;;;;;;;;5011545;28;20042;-67
2023/09/01 12:09:48;;;;;;;5.50;1.30;;;;;;;;;;5010837;28;20383;-68
2023/09/01 12:12:15;;;;;;;2.80;1.10;;;;;;;;;;5011687;28;20042;-67
2023/09/01 12:14:41;;;;;;;4.35;1.20;;;;;;;;;;5011560;28;20049;-67
2023/09/01 12:17:17;;;;;;;2.17;1.20;;;;;;;;;;5011304;28;20151;-68
2023/09/01 12:19:48;;;;;;;1.88;1.10;;;;;;;;;;5010869;28;20050;-67
2023/09/01 12:22:15;;;;;;;2.58;1.40;;;;;;;;;;5012628;28;20046;-69
2023/09/01 12:24:50;;;;;;;4.63;2.40;;;;;;;;;;5011799;28;20491;-66
2023/09/01 12:27:17;;;;;;;2.58;1.40;;;;;;;;;;5011676;28;20057;-68
2023/09/01 12:29:43;;;;;;;4.13;1.70;;;;;;;;;;5011317;28;20514;-68
2023/09/01 12:32:10;;;;;;;2.22;1.45;;;;;;;;;;5011481;28;20049;-69
2023/09/01 12:34:38;;;;;;;2.55;1.25;;;;;;;;;;5012113;28;20056;-69
2023/09/01 12:37:05;;;;;;;1.65;1.13;;;;;;;;;;5011261;28;20046;-69
2023/09/01 12:39:32;;;;;;;3.03;1.50;;;;;;;;;;5010717;28;20050;-68
2023/09/01 12:41:59;;;;;;;2.40;0.95;;;;;;;;;;5011265;28;20128;-68
2023/09/01 12:44:27;;;;;;;2.38;1.20;;;;;;;;;;5011679;28;20042;-69
2023/09/01 12:46:54;;;;;;;2.20;1.10;;;;;;;;;;5010824;28;20100;-68
2023/09/01 12:49:21;;;;;;;3.13;1.00;;;;;;;;;;5011343;28;20046;-69
2023/09/01 12:51:49;;;;;;;2.45;1.45;;;;;;;;;;5010242;28;20050;-69
2023/09/01 12:54:15;;;;;;;1.48;0.90;;;;;;;;;;5011496;28;20225;-69
2023/09/01 12:56:43;;;;;;;0.88;0.80;;;;;;;;;;5011489;28;20050;-69
2023/09/01 12:59:12;;;;;;;0.88;0.80;;;;;;;;;;5011502;28;20048;-68
2023/09/01 13:01:39;;;;;;;1.05;0.63;;;;;;;;;;5011476;28;20407;-69
2023/09/01 13:04:06;;;;;;;0.80;0.65;;;;;;;;;;5011955;28;20515;-69
2023/09/01 13:06:33;;;;;;;0.60;0.60;;;;;;;;;;5011965;28;20056;-68
2023/09/01 13:09:02;;;;;;;1.95;0.80;;;;;;;;;;5011853;28;20423;-68
2023/09/01 13:11:29;;;;;;;0.77;0.65;;;;;;;;;;5011619;28;20100;-69
2023/09/01 13:13:55;;;;;;;2.45;0.70;;;;;;;;;;5011475;28;20461;-69
2023/09/01 13:16:28;;;;;;;1.00;0.80;;;;;;;;;;5012805;28;20045;-69
2023/09/01 13:18:54;;;;;;;1.00;0.80;;;;;;;;;;5009472;28;20045;-68
2023/09/01 13:21:21;;;;;;;1.33;0.70;;;;;;;;;;5011326;28;20492;-68
2023/09/01 13:23:49;;;;;;;0.60;0.60;;;;;;;;;;5010949;28;20060;-69
2023/09/01 13:26:17;;;;;;;1.50;0.65;;;;;;;;;;5010962;28;20042;-69
2023/09/01 13:28:44;;;;;;;1.05;0.68;;;;;;;;;;5011127;28;20144;-68
2023/09/01 13:31:10;;;;;;;0.60;0.60;;;;;;;;;;5010522;28;20067;-69
2023/09/01 13:33:40;;;;;;;1.10;0.60;;;;;;;;;;5010773;28;20041;-69
2023/09/01 13:36:07;;;;;;;1.00;0.80;;;;;;;;;;5010576;28;20086;-71
2023/09/01 13:38:33;;;;;;;0.47;0.47;;;;;;;;;;5011112;28;20080;-68
2023/09/01 13:41:00;;;;;;;0.60;0.60;;;;;;;;;;5009828;28;20514;-69
2023/09/01 13:43:28;;;;;;;0.50;0.50;;;;;;;;;;5010779;28;20137;-69
2023/09/01 13:45:55;;;;;;;0.52;0.52;;;;;;;;;;5009953;28;20050;-69
2023/09/01 13:48:21;;;;;;;0.40;0.40;;;;;;;;;;5010951;28;20604;-69
2023/09/01 13:50:48;;;;;;;0.40;0.40;;;;;;;;;;5009649;28;20050;-69
2023/09/01 13:53:15;;;;;;;0.30;0.30;;;;;;;;;;5006747;28;20052;-71
2023/09/01 13:55:41;;;;;;;0.70;0.70;;;;;;;;;;5009865;28;20052;-69
2023/09/01 13:58:08;;;;;;;0.35;0.35;;;;;;;;;;5009797;28;20064;-68
2023/09/01 14:00:38;;;;;;;0.57;0.55;;;;;;;;;;5008927;28;20049;-68
2023/09/01 14:03:08;;;;;;;0.65;0.50;;;;;;;;;;5010525;28;20294;-69
2023/09/01 14:05:35;;;;;;;0.40;0.40;;;;;;;;;;5010701;28;20196;-69
2023/09/01 14:08:03;;;;;;;0.70;0.40;;;;;;;;;;5010270;28;20046;-69
2023/09/01 14:10:29;;;;;;;0.95;0.50;;;;;;;;;;5010229;28;20499;-69
2023/09/01 14:12:56;;;;;;;0.40;0.30;;;;;;;;;;5009891;28;20052;-69
2023/09/01 14:15:24;;;;;;;0.52;0.40;;;;;;;;;;5010032;28;20045;-69
2023/09/01 14:17:52;;;;;;;0.40;0.40;;;;;;;;;;5009842;28;20050;-68
2023/09/01 14:20:18;;;;;;;0.40;0.30;;;;;;;;;;5009494;28;20091;-69
2023/09/01 14:22:45;;;;;;;0.45;0.40;;;;;;;;;;5009754;28;20056;-68
2023/09/01 14:25:11;;;;;;;0.38;0.38;;;;;;;;;;5010154;28;20415;-68
2023/09/01 14:27:38;;;;;;;0.40;0.40;;;;;;;;;;5009307;28;20046;-69
2023/09/01 14:30:05;;;;;;;0.40;0.35;;;;;;;;;;5009483;28;20049;-69
2023/09/01 14:32:32;;;;;;;0.65;0.40;;;;;;;;;;5010286;28;20060;-69
2023/09/01 14:35:00;;;;;;;0.50;0.50;;;;;;;;;;5009909;28;20164;-69
2023/09/01 14:37:26;;;;;;;1.80;0.50;;;;;;;;;;5013601;28;20060;-69
2023/09/01 14:39:53;;;;;;;0.80;0.60;;;;;;;;;;5013029;28;20042;-67
2023/09/01 14:42:20;;;;;;;0.60;0.60;;;;;;;;;;5014023;28;20046;-69
2023/09/01 14:44:46;;;;;;;0.55;0.52;;;;;;;;;;5014179;28;20042;-69
2023/09/01 14:47:13;;;;;;;0.47;0.47;;;;;;;;;;5014318;28;20052;-69
2023/09/01 14:49:39;;;;;;;0.50;0.50;;;;;;;;;;5013065;28;20231;-68